sensor_id;sensor_type;location;lat;lon;timestamp;P1;durP1;ratioP1;P2;durP2;ratioP2
46290;SDS011;32023;44.444;26.006;2022-09-11T00:02:26;32.90;;;23.42;;
46290;SDS011;32023;44.444;26.006;2022-09-11T00:04:53;31.30;;;22.73;;
46290;SDS011;32023;44.444;26.006;2022-09-11T00:07:19;28.65;;;23.85;;
46290;SDS011;32023;44.444;26.006;2022-09-11T00:09:46;32.33;;;25.52;;
46290;SDS011;32023;44.444;26.006;2022-09-11T00:12:15;35.63;;;26.05;;
46290;SDS011;32023;44.444;26.006;2022-09-11T00:14:41;36.80;;;25.75;;
46290;SDS011;32023;44.444;26.006;2022-09-11T00:17:08;36.17;;;26.08;;
46290;SDS011;32023;44.444;26.006;2022-09-11T00:19:35;39.85;;;25.08;;
46290;SDS011;32023;44.444;26.006;2022-09-11T00:22:01;39.17;;;27.63;;
46290;SDS011;32023;44.444;26.006;2022-09-11T00:24:30;32.95;;;27.70;;
46290;SDS011;32023;44.444;26.006;2022-09-11T00:26:59;38.90;;;28.05;;
46290;SDS011;32023;44.444;26.006;2022-09-11T00:29:25;37.80;;;28.15;;
46290;SDS011;32023;44.444;26.006;2022-09-11T00:42:42;43.83;;;33.60;;
46290;SDS011;32023;44.444;26.006;2022-09-11T00:45:42;49.28;;;34.33;;
46290;SDS011;32023;44.444;26.006;2022-09-11T00:50:59;45.97;;;33.65;;
46290;SDS011;32023;44.444;26.006;2022-09-11T00:53:28;54.22;;;34.65;;
46290;SDS011;32023;44.444;26.006;2022-09-11T00:56:06;48.05;;;33.35;;
46290;SDS011;32023;44.444;26.006;2022-09-11T00:58:35;48.83;;;34.53;;
46290;SDS011;32023;44.444;26.006;2022-09-11T01:01:06;48.70;;;34.83;;
46290;SDS011;32023;44.444;26.006;2022-09-11T01:03:33;47.45;;;34.10;;
46290;SDS011;32023;44.444;26.006;2022-09-11T01:06:00;48.17;;;35.72;;
46290;SDS011;32023;44.444;26.006;2022-09-11T01:08:29;49.63;;;32.60;;
46290;SDS011;32023;44.444;26.006;2022-09-11T01:16:39;46.60;;;35.88;;
46290;SDS011;32023;44.444;26.006;2022-09-11T01:20:20;50.53;;;36.35;;
46290;SDS011;32023;44.444;26.006;2022-09-11T01:22:53;49.10;;;36.28;;
46290;SDS011;32023;44.444;26.006;2022-09-11T01:28:14;48.75;;;36.08;;
46290;SDS011;32023;44.444;26.006;2022-09-11T01:36:29;52.92;;;35.85;;
46290;SDS011;32023;44.444;26.006;2022-09-11T01:39:04;50.65;;;35.80;;
46290;SDS011;32023;44.444;26.006;2022-09-11T01:41:35;47.83;;;35.95;;
46290;SDS011;32023;44.444;26.006;2022-09-11T01:44:05;52.47;;;34.72;;
46290;SDS011;32023;44.444;26.006;2022-09-11T01:46:42;54.70;;;35.92;;
46290;SDS011;32023;44.444;26.006;2022-09-11T01:49:15;52.88;;;35.92;;
46290;SDS011;32023;44.444;26.006;2022-09-11T01:51:58;55.03;;;34.75;;
46290;SDS011;32023;44.444;26.006;2022-09-11T01:54:32;45.58;;;35.13;;
46290;SDS011;32023;44.444;26.006;2022-09-11T01:57:11;49.15;;;34.78;;
46290;SDS011;32023;44.444;26.006;2022-09-11T01:59:58;43.88;;;34.20;;
46290;SDS011;32023;44.444;26.006;2022-09-11T02:02:34;42.28;;;33.47;;
46290;SDS011;32023;44.444;26.006;2022-09-11T02:05:21;46.28;;;34.13;;
46290;SDS011;32023;44.444;26.006;2022-09-11T02:07:53;43.08;;;32.75;;
46290;SDS011;32023;44.444;26.006;2022-09-11T02:10:31;44.90;;;33.38;;
46290;SDS011;32023;44.444;26.006;2022-09-11T02:15:51;43.88;;;32.30;;
46290;SDS011;32023;44.444;26.006;2022-09-11T02:21:34;38.58;;;31.00;;
46290;SDS011;32023;44.444;26.006;2022-09-11T02:24:02;42.83;;;31.25;;
46290;SDS011;32023;44.444;26.006;2022-09-11T02:26:30;44.30;;;30.90;;
46290;SDS011;32023;44.444;26.006;2022-09-11T02:31:29;38.42;;;27.77;;
46290;SDS011;32023;44.444;26.006;2022-09-11T02:33:57;36.92;;;27.58;;
46290;SDS011;32023;44.444;26.006;2022-09-11T02:41:59;25.67;;;19.35;;
46290;SDS011;32023;44.444;26.006;2022-09-11T02:53:04;27.13;;;18.15;;
46290;SDS011;32023;44.444;26.006;2022-09-11T02:56:10;22.50;;;17.52;;
46290;SDS011;32023;44.444;26.006;2022-09-11T02:58:55;23.35;;;16.67;;
46290;SDS011;32023;44.444;26.006;2022-09-11T03:01:24;19.35;;;16.02;;
46290;SDS011;32023;44.444;26.006;2022-09-11T03:03:51;22.27;;;16.90;;
46290;SDS011;32023;44.444;26.006;2022-09-11T03:06:19;21.88;;;15.88;;
46290;SDS011;32023;44.444;26.006;2022-09-11T03:08:49;25.27;;;15.57;;
46290;SDS011;32023;44.444;26.006;2022-09-11T03:11:27;24.48;;;15.82;;
46290;SDS011;32023;44.444;26.006;2022-09-11T03:13:54;24.20;;;16.42;;
46290;SDS011;32023;44.444;26.006;2022-09-11T03:16:22;18.95;;;15.40;;
46290;SDS011;32023;44.444;26.006;2022-09-11T03:18:51;20.33;;;15.38;;
46290;SDS011;32023;44.444;26.006;2022-09-11T03:21:22;17.02;;;14.07;;
46290;SDS011;32023;44.444;26.006;2022-09-11T03:23:51;19.25;;;15.77;;
46290;SDS011;32023;44.444;26.006;2022-09-11T03:26:17;21.52;;;14.38;;
46290;SDS011;32023;44.444;26.006;2022-09-11T03:28:45;16.80;;;15.00;;
46290;SDS011;32023;44.444;26.006;2022-09-11T03:31:11;24.88;;;15.80;;
46290;SDS011;32023;44.444;26.006;2022-09-11T03:33:45;17.48;;;14.35;;
46290;SDS011;32023;44.444;26.006;2022-09-11T03:36:11;16.50;;;14.18;;
46290;SDS011;32023;44.444;26.006;2022-09-11T03:38:45;19.27;;;14.55;;
46290;SDS011;32023;44.444;26.006;2022-09-11T03:41:12;21.08;;;14.07;;
46290;SDS011;32023;44.444;26.006;2022-09-11T03:43:39;16.25;;;13.00;;
46290;SDS011;32023;44.444;26.006;2022-09-11T03:46:08;19.20;;;13.95;;
46290;SDS011;32023;44.444;26.006;2022-09-11T03:48:35;24.30;;;13.43;;
46290;SDS011;32023;44.444;26.006;2022-09-11T03:51:02;18.73;;;13.88;;
46290;SDS011;32023;44.444;26.006;2022-09-11T03:53:29;22.65;;;14.80;;
46290;SDS011;32023;44.444;26.006;2022-09-11T03:55:59;17.25;;;13.32;;
46290;SDS011;32023;44.444;26.006;2022-09-11T03:58:28;16.30;;;13.90;;
46290;SDS011;32023;44.444;26.006;2022-09-11T04:00:54;19.80;;;14.23;;
46290;SDS011;32023;44.444;26.006;2022-09-11T04:03:21;19.75;;;14.23;;
46290;SDS011;32023;44.444;26.006;2022-09-11T04:06:00;16.40;;;12.50;;
46290;SDS011;32023;44.444;26.006;2022-09-11T04:08:27;17.67;;;13.65;;
46290;SDS011;32023;44.444;26.006;2022-09-11T04:13:30;16.55;;;12.73;;
46290;SDS011;32023;44.444;26.006;2022-09-11T04:15:59;17.92;;;13.30;;
46290;SDS011;32023;44.444;26.006;2022-09-11T04:18:28;20.77;;;13.07;;
46290;SDS011;32023;44.444;26.006;2022-09-11T04:20:56;19.75;;;12.93;;
46290;SDS011;32023;44.444;26.006;2022-09-11T04:23:22;17.23;;;13.30;;
46290;SDS011;32023;44.444;26.006;2022-09-11T04:25:49;17.75;;;12.60;;
46290;SDS011;32023;44.444;26.006;2022-09-11T04:28:16;17.92;;;12.57;;
46290;SDS011;32023;44.444;26.006;2022-09-11T04:30:43;19.77;;;13.23;;
46290;SDS011;32023;44.444;26.006;2022-09-11T04:33:10;16.65;;;12.95;;
46290;SDS011;32023;44.444;26.006;2022-09-11T04:35:38;15.18;;;12.95;;
46290;SDS011;32023;44.444;26.006;2022-09-11T04:38:06;19.65;;;12.55;;
46290;SDS011;32023;44.444;26.006;2022-09-11T04:40:33;17.92;;;13.00;;
46290;SDS011;32023;44.444;26.006;2022-09-11T04:43:00;16.60;;;12.55;;
46290;SDS011;32023;44.444;26.006;2022-09-11T04:45:27;15.73;;;12.95;;
46290;SDS011;32023;44.444;26.006;2022-09-11T04:48:02;13.77;;;12.25;;
46290;SDS011;32023;44.444;26.006;2022-09-11T04:50:28;14.98;;;11.82;;
46290;SDS011;32023;44.444;26.006;2022-09-11T04:52:56;14.07;;;11.55;;
46290;SDS011;32023;44.444;26.006;2022-09-11T04:55:22;14.93;;;12.02;;
46290;SDS011;32023;44.444;26.006;2022-09-11T04:57:50;16.75;;;11.45;;
46290;SDS011;32023;44.444;26.006;2022-09-11T05:00:18;14.10;;;12.30;;
46290;SDS011;32023;44.444;26.006;2022-09-11T05:02:45;17.92;;;10.80;;
46290;SDS011;32023;44.444;26.006;2022-09-11T05:05:11;13.05;;;10.77;;
46290;SDS011;32023;44.444;26.006;2022-09-11T05:07:38;14.10;;;10.85;;
46290;SDS011;32023;44.444;26.006;2022-09-11T05:10:08;14.07;;;10.57;;
46290;SDS011;32023;44.444;26.006;2022-09-11T05:12:35;17.35;;;11.43;;
46290;SDS011;32023;44.444;26.006;2022-09-11T05:15:15;14.57;;;12.02;;
46290;SDS011;32023;44.444;26.006;2022-09-11T05:17:41;14.60;;;11.35;;
46290;SDS011;32023;44.444;26.006;2022-09-11T05:20:12;17.17;;;11.00;;
46290;SDS011;32023;44.444;26.006;2022-09-11T05:22:43;18.73;;;10.60;;
46290;SDS011;32023;44.444;26.006;2022-09-11T05:25:19;12.27;;;10.60;;
46290;SDS011;32023;44.444;26.006;2022-09-11T05:27:46;15.20;;;10.27;;
46290;SDS011;32023;44.444;26.006;2022-09-11T05:30:12;14.40;;;10.52;;
46290;SDS011;32023;44.444;26.006;2022-09-11T05:32:39;14.18;;;10.10;;
46290;SDS011;32023;44.444;26.006;2022-09-11T05:35:05;19.25;;;10.18;;
46290;SDS011;32023;44.444;26.006;2022-09-11T05:37:32;14.82;;;9.75;;
46290;SDS011;32023;44.444;26.006;2022-09-11T05:39:58;15.43;;;10.35;;
46290;SDS011;32023;44.444;26.006;2022-09-11T05:42:25;14.20;;;10.02;;
46290;SDS011;32023;44.444;26.006;2022-09-11T05:44:52;13.30;;;9.25;;
46290;SDS011;32023;44.444;26.006;2022-09-11T05:47:21;14.82;;;9.18;;
46290;SDS011;32023;44.444;26.006;2022-09-11T05:49:53;13.90;;;9.40;;
46290;SDS011;32023;44.444;26.006;2022-09-11T05:52:22;15.77;;;9.40;;
46290;SDS011;32023;44.444;26.006;2022-09-11T05:54:49;11.75;;;8.77;;
46290;SDS011;32023;44.444;26.006;2022-09-11T05:57:17;11.27;;;8.55;;
46290;SDS011;32023;44.444;26.006;2022-09-11T05:59:44;12.65;;;7.78;;
46290;SDS011;32023;44.444;26.006;2022-09-11T06:02:10;15.02;;;8.80;;
46290;SDS011;32023;44.444;26.006;2022-09-11T06:04:37;14.40;;;8.23;;
46290;SDS011;32023;44.444;26.006;2022-09-11T06:07:03;12.90;;;7.50;;
46290;SDS011;32023;44.444;26.006;2022-09-11T06:09:29;12.43;;;7.57;;
46290;SDS011;32023;44.444;26.006;2022-09-11T06:12:13;11.32;;;7.00;;
46290;SDS011;32023;44.444;26.006;2022-09-11T06:17:45;8.98;;;7.25;;
46290;SDS011;32023;44.444;26.006;2022-09-11T06:20:13;11.70;;;6.40;;
46290;SDS011;32023;44.444;26.006;2022-09-11T06:22:39;9.18;;;7.22;;
46290;SDS011;32023;44.444;26.006;2022-09-11T06:25:05;13.48;;;7.68;;
46290;SDS011;32023;44.444;26.006;2022-09-11T06:27:33;9.68;;;6.65;;
46290;SDS011;32023;44.444;26.006;2022-09-11T06:32:29;10.63;;;6.75;;
46290;SDS011;32023;44.444;26.006;2022-09-11T06:35:01;8.70;;;7.03;;
46290;SDS011;32023;44.444;26.006;2022-09-11T06:37:29;9.63;;;6.38;;
46290;SDS011;32023;44.444;26.006;2022-09-11T06:39:57;17.30;;;7.28;;
46290;SDS011;32023;44.444;26.006;2022-09-11T06:42:28;12.68;;;6.63;;
46290;SDS011;32023;44.444;26.006;2022-09-11T06:44:55;8.52;;;5.97;;
46290;SDS011;32023;44.444;26.006;2022-09-11T06:47:21;8.10;;;5.40;;
46290;SDS011;32023;44.444;26.006;2022-09-11T06:49:49;9.20;;;5.60;;
46290;SDS011;32023;44.444;26.006;2022-09-11T06:52:16;10.98;;;5.63;;
46290;SDS011;32023;44.444;26.006;2022-09-11T06:57:14;8.98;;;5.18;;
46290;SDS011;32023;44.444;26.006;2022-09-11T06:59:40;9.15;;;5.30;;
46290;SDS011;32023;44.444;26.006;2022-09-11T07:02:10;10.30;;;5.32;;
46290;SDS011;32023;44.444;26.006;2022-09-11T07:04:37;7.97;;;5.20;;
46290;SDS011;32023;44.444;26.006;2022-09-11T07:07:03;8.02;;;4.95;;
46290;SDS011;32023;44.444;26.006;2022-09-11T07:09:29;6.95;;;5.10;;
46290;SDS011;32023;44.444;26.006;2022-09-11T07:11:58;9.85;;;5.50;;
46290;SDS011;32023;44.444;26.006;2022-09-11T07:14:24;11.52;;;5.03;;
46290;SDS011;32023;44.444;26.006;2022-09-11T07:16:51;8.05;;;4.70;;
46290;SDS011;32023;44.444;26.006;2022-09-11T07:19:25;6.63;;;4.88;;
46290;SDS011;32023;44.444;26.006;2022-09-11T07:21:51;6.28;;;4.43;;
46290;SDS011;32023;44.444;26.006;2022-09-11T07:24:19;7.80;;;4.32;;
46290;SDS011;32023;44.444;26.006;2022-09-11T07:26:46;6.47;;;4.35;;
46290;SDS011;32023;44.444;26.006;2022-09-11T07:29:15;5.18;;;3.65;;
46290;SDS011;32023;44.444;26.006;2022-09-11T07:31:44;5.93;;;4.10;;
46290;SDS011;32023;44.444;26.006;2022-09-11T07:34:11;6.85;;;4.18;;
46290;SDS011;32023;44.444;26.006;2022-09-11T07:39:10;11.15;;;4.20;;
46290;SDS011;32023;44.444;26.006;2022-09-11T07:44:35;6.03;;;3.70;;
46290;SDS011;32023;44.444;26.006;2022-09-11T07:47:12;6.00;;;3.55;;
46290;SDS011;32023;44.444;26.006;2022-09-11T07:52:23;5.45;;;2.83;;
46290;SDS011;32023;44.444;26.006;2022-09-11T07:55:08;4.20;;;3.00;;
46290;SDS011;32023;44.444;26.006;2022-09-11T07:57:56;4.57;;;3.47;;
46290;SDS011;32023;44.444;26.006;2022-09-11T08:00:38;6.28;;;2.80;;
46290;SDS011;32023;44.444;26.006;2022-09-11T08:03:08;6.53;;;2.97;;
46290;SDS011;32023;44.444;26.006;2022-09-11T08:05:38;7.32;;;3.05;;
46290;SDS011;32023;44.444;26.006;2022-09-11T08:08:07;5.15;;;2.92;;
46290;SDS011;32023;44.444;26.006;2022-09-11T08:10:40;6.13;;;2.58;;
46290;SDS011;32023;44.444;26.006;2022-09-11T08:13:16;6.43;;;2.97;;
46290;SDS011;32023;44.444;26.006;2022-09-11T08:15:48;7.28;;;2.88;;
46290;SDS011;32023;44.444;26.006;2022-09-11T08:18:31;6.97;;;2.53;;
46290;SDS011;32023;44.444;26.006;2022-09-11T08:21:04;4.32;;;2.08;;
46290;SDS011;32023;44.444;26.006;2022-09-11T08:23:44;6.28;;;2.38;;
46290;SDS011;32023;44.444;26.006;2022-09-11T08:26:12;7.25;;;2.63;;
46290;SDS011;32023;44.444;26.006;2022-09-11T08:28:42;4.32;;;2.30;;
46290;SDS011;32023;44.444;26.006;2022-09-11T08:31:09;6.38;;;2.67;;
46290;SDS011;32023;44.444;26.006;2022-09-11T08:33:39;5.43;;;2.80;;
46290;SDS011;32023;44.444;26.006;2022-09-11T08:36:13;5.43;;;2.50;;
46290;SDS011;32023;44.444;26.006;2022-09-11T08:38:40;3.45;;;2.40;;
46290;SDS011;32023;44.444;26.006;2022-09-11T08:43:55;6.18;;;2.60;;
46290;SDS011;32023;44.444;26.006;2022-09-11T08:46:39;8.63;;;2.80;;
46290;SDS011;32023;44.444;26.006;2022-09-11T08:52:29;4.57;;;2.28;;
46290;SDS011;32023;44.444;26.006;2022-09-11T08:55:04;5.35;;;2.17;;
46290;SDS011;32023;44.444;26.006;2022-09-11T08:57:45;4.95;;;1.77;;
46290;SDS011;32023;44.444;26.006;2022-09-11T09:00:26;4.75;;;2.03;;
46290;SDS011;32023;44.444;26.006;2022-09-11T09:03:23;5.85;;;2.05;;
46290;SDS011;32023;44.444;26.006;2022-09-11T09:11:38;5.72;;;1.60;;
46290;SDS011;32023;44.444;26.006;2022-09-11T09:14:23;6.22;;;1.50;;
46290;SDS011;32023;44.444;26.006;2022-09-11T09:20:20;2.13;;;1.70;;
46290;SDS011;32023;44.444;26.006;2022-09-11T09:25:59;5.05;;;1.48;;
46290;SDS011;32023;44.444;26.006;2022-09-11T09:28:32;5.47;;;1.50;;
46290;SDS011;32023;44.444;26.006;2022-09-11T09:31:07;7.80;;;1.60;;
46290;SDS011;32023;44.444;26.006;2022-09-11T09:33:50;3.92;;;1.73;;
46290;SDS011;32023;44.444;26.006;2022-09-11T09:39:40;4.28;;;1.80;;
46290;SDS011;32023;44.444;26.006;2022-09-11T09:48:32;1.80;;;1.60;;
46290;SDS011;32023;44.444;26.006;2022-09-11T09:51:08;1.92;;;1.55;;
46290;SDS011;32023;44.444;26.006;2022-09-11T09:53:51;2.13;;;1.90;;
46290;SDS011;32023;44.444;26.006;2022-09-11T09:56:22;5.68;;;2.15;;
46290;SDS011;32023;44.444;26.006;2022-09-11T09:58:53;2.50;;;1.70;;
46290;SDS011;32023;44.444;26.006;2022-09-11T10:01:44;2.53;;;1.80;;
46290;SDS011;32023;44.444;26.006;2022-09-11T10:04:20;2.35;;;1.75;;
46290;SDS011;32023;44.444;26.006;2022-09-11T10:10:02;2.08;;;1.83;;
46290;SDS011;32023;44.444;26.006;2022-09-11T10:12:28;2.05;;;1.70;;
46290;SDS011;32023;44.444;26.006;2022-09-11T10:15:05;3.78;;;1.85;;
46290;SDS011;32023;44.444;26.006;2022-09-11T10:18:20;5.05;;;2.20;;
46290;SDS011;32023;44.444;26.006;2022-09-11T10:24:00;2.22;;;1.95;;
46290;SDS011;32023;44.444;26.006;2022-09-11T10:27:11;3.13;;;2.00;;
46290;SDS011;32023;44.444;26.006;2022-09-11T10:33:37;2.90;;;2.35;;
46290;SDS011;32023;44.444;26.006;2022-09-11T10:36:07;3.92;;;2.03;;
46290;SDS011;32023;44.444;26.006;2022-09-11T10:46:42;2.70;;;1.65;;
46290;SDS011;32023;44.444;26.006;2022-09-11T10:49:22;3.08;;;2.10;;
46290;SDS011;32023;44.444;26.006;2022-09-11T10:52:02;3.47;;;2.03;;
46290;SDS011;32023;44.444;26.006;2022-09-11T10:54:57;2.33;;;1.88;;
46290;SDS011;32023;44.444;26.006;2022-09-11T10:57:52;4.22;;;1.80;;
46290;SDS011;32023;44.444;26.006;2022-09-11T11:00:26;2.15;;;1.83;;
46290;SDS011;32023;44.444;26.006;2022-09-11T11:11:49;3.05;;;1.60;;
46290;SDS011;32023;44.444;26.006;2022-09-11T11:14:30;2.17;;;1.70;;
46290;SDS011;32023;44.444;26.006;2022-09-11T11:17:20;3.53;;;2.08;;
46290;SDS011;32023;44.444;26.006;2022-09-11T11:37:15;1.77;;;1.60;;
46290;SDS011;32023;44.444;26.006;2022-09-11T11:40:03;1.50;;;1.33;;
46290;SDS011;32023;44.444;26.006;2022-09-11T11:45:40;1.63;;;1.45;;
46290;SDS011;32023;44.444;26.006;2022-09-11T11:51:06;3.22;;;1.25;;
46290;SDS011;32023;44.444;26.006;2022-09-11T11:53:41;1.05;;;0.80;;
46290;SDS011;32023;44.444;26.006;2022-09-11T12:07:50;4.07;;;1.45;;
46290;SDS011;32023;44.444;26.006;2022-09-11T12:10:33;4.00;;;1.02;;
46290;SDS011;32023;44.444;26.006;2022-09-11T12:13:11;1.75;;;0.90;;
46290;SDS011;32023;44.444;26.006;2022-09-11T12:18:33;2.22;;;1.85;;
46290;SDS011;32023;44.444;26.006;2022-09-11T12:28:46;1.95;;;1.05;;
46290;SDS011;32023;44.444;26.006;2022-09-11T12:31:14;1.45;;;1.10;;
46290;SDS011;32023;44.444;26.006;2022-09-11T12:36:51;0.75;;;0.70;;
46290;SDS011;32023;44.444;26.006;2022-09-11T12:39:30;3.90;;;1.13;;
46290;SDS011;32023;44.444;26.006;2022-09-11T12:47:25;2.35;;;0.73;;
46290;SDS011;32023;44.444;26.006;2022-09-11T12:49:56;2.85;;;0.40;;
46290;SDS011;32023;44.444;26.006;2022-09-11T12:52:37;5.50;;;0.70;;
46290;SDS011;32023;44.444;26.006;2022-09-11T12:58:04;6.13;;;0.82;;
46290;SDS011;32023;44.444;26.006;2022-09-11T13:00:53;1.83;;;0.60;;
46290;SDS011;32023;44.444;26.006;2022-09-11T13:06:53;1.02;;;0.45;;
46290;SDS011;32023;44.444;26.006;2022-09-11T13:09:32;3.88;;;0.68;;
46290;SDS011;32023;44.444;26.006;2022-09-11T13:14:55;2.05;;;0.50;;
46290;SDS011;32023;44.444;26.006;2022-09-11T13:21:24;4.22;;;0.65;;
46290;SDS011;32023;44.444;26.006;2022-09-11T13:24:36;2.03;;;0.85;;
46290;SDS011;32023;44.444;26.006;2022-09-11T13:27:05;4.22;;;0.68;;
46290;SDS011;32023;44.444;26.006;2022-09-11T13:29:39;2.05;;;0.82;;
46290;SDS011;32023;44.444;26.006;2022-09-11T13:32:08;5.60;;;0.85;;
46290;SDS011;32023;44.444;26.006;2022-09-11T13:34:44;2.30;;;0.50;;
46290;SDS011;32023;44.444;26.006;2022-09-11T13:40:19;3.88;;;0.70;;
46290;SDS011;32023;44.444;26.006;2022-09-11T13:42:51;1.13;;;0.55;;
46290;SDS011;32023;44.444;26.006;2022-09-11T13:45:18;6.70;;;0.73;;
46290;SDS011;32023;44.444;26.006;2022-09-11T13:47:46;1.23;;;0.90;;
46290;SDS011;32023;44.444;26.006;2022-09-11T13:50:13;2.50;;;0.80;;
46290;SDS011;32023;44.444;26.006;2022-09-11T13:52:45;1.02;;;0.60;;
46290;SDS011;32023;44.444;26.006;2022-09-11T13:55:16;2.95;;;0.90;;
46290;SDS011;32023;44.444;26.006;2022-09-11T14:00:45;1.17;;;0.75;;
46290;SDS011;32023;44.444;26.006;2022-09-11T14:03:23;1.08;;;0.68;;
46290;SDS011;32023;44.444;26.006;2022-09-11T14:05:54;9.27;;;0.98;;
46290;SDS011;32023;44.444;26.006;2022-09-11T14:08:25;2.15;;;0.70;;
46290;SDS011;32023;44.444;26.006;2022-09-11T14:11:11;5.55;;;0.80;;
46290;SDS011;32023;44.444;26.006;2022-09-11T14:13:56;2.95;;;1.13;;
46290;SDS011;32023;44.444;26.006;2022-09-11T14:16:31;3.22;;;0.80;;
46290;SDS011;32023;44.444;26.006;2022-09-11T14:19:17;1.30;;;0.90;;
46290;SDS011;32023;44.444;26.006;2022-09-11T14:21:55;1.10;;;0.60;;
46290;SDS011;32023;44.444;26.006;2022-09-11T14:24:26;1.58;;;0.68;;
46290;SDS011;32023;44.444;26.006;2022-09-11T14:27:03;0.88;;;0.85;;
46290;SDS011;32023;44.444;26.006;2022-09-11T14:33:08;0.80;;;0.57;;
46290;SDS011;32023;44.444;26.006;2022-09-11T14:35:48;1.60;;;0.60;;
46290;SDS011;32023;44.444;26.006;2022-09-11T14:38:17;3.58;;;0.77;;
46290;SDS011;32023;44.444;26.006;2022-09-11T14:40:52;3.95;;;0.75;;
46290;SDS011;32023;44.444;26.006;2022-09-11T14:43:24;2.10;;;0.75;;
46290;SDS011;32023;44.444;26.006;2022-09-11T14:45:59;3.00;;;0.60;;
46290;SDS011;32023;44.444;26.006;2022-09-11T14:48:30;2.20;;;0.70;;
46290;SDS011;32023;44.444;26.006;2022-09-11T14:51:17;1.38;;;0.80;;
46290;SDS011;32023;44.444;26.006;2022-09-11T14:56:31;1.75;;;0.77;;
46290;SDS011;32023;44.444;26.006;2022-09-11T14:59:06;2.42;;;0.80;;
46290;SDS011;32023;44.444;26.006;2022-09-11T15:04:22;4.88;;;1.23;;
46290;SDS011;32023;44.444;26.006;2022-09-11T15:06:51;3.30;;;1.67;;
46290;SDS011;32023;44.444;26.006;2022-09-11T15:09:22;3.50;;;1.40;;
46290;SDS011;32023;44.444;26.006;2022-09-11T15:11:55;3.40;;;1.40;;
46290;SDS011;32023;44.444;26.006;2022-09-11T15:14:27;2.50;;;1.45;;
46290;SDS011;32023;44.444;26.006;2022-09-11T15:17:10;3.85;;;1.40;;
46290;SDS011;32023;44.444;26.006;2022-09-11T15:22:28;3.72;;;1.45;;
46290;SDS011;32023;44.444;26.006;2022-09-11T15:24:56;5.75;;;1.52;;
46290;SDS011;32023;44.444;26.006;2022-09-11T15:27:24;5.57;;;1.35;;
46290;SDS011;32023;44.444;26.006;2022-09-11T15:29:52;3.88;;;1.60;;
46290;SDS011;32023;44.444;26.006;2022-09-11T15:32:25;3.28;;;1.30;;
46290;SDS011;32023;44.444;26.006;2022-09-11T15:34:51;5.68;;;1.38;;
46290;SDS011;32023;44.444;26.006;2022-09-11T15:37:21;5.32;;;1.27;;
46290;SDS011;32023;44.444;26.006;2022-09-11T15:39:49;4.90;;;1.40;;
46290;SDS011;32023;44.444;26.006;2022-09-11T15:42:20;4.22;;;0.90;;
46290;SDS011;32023;44.444;26.006;2022-09-11T15:44:46;3.58;;;0.90;;
46290;SDS011;32023;44.444;26.006;2022-09-11T15:47:14;4.30;;;1.17;;
46290;SDS011;32023;44.444;26.006;2022-09-11T15:49:44;1.95;;;1.23;;
46290;SDS011;32023;44.444;26.006;2022-09-11T15:52:14;9.07;;;1.10;;
46290;SDS011;32023;44.444;26.006;2022-09-11T15:54:41;2.28;;;1.00;;
46290;SDS011;32023;44.444;26.006;2022-09-11T15:57:09;5.53;;;1.25;;
46290;SDS011;32023;44.444;26.006;2022-09-11T15:59:36;4.80;;;1.75;;
46290;SDS011;32023;44.444;26.006;2022-09-11T16:02:03;5.32;;;1.67;;
46290;SDS011;32023;44.444;26.006;2022-09-11T16:04:33;3.03;;;1.90;;
46290;SDS011;32023;44.444;26.006;2022-09-11T16:07:00;2.38;;;1.42;;
46290;SDS011;32023;44.444;26.006;2022-09-11T16:09:28;5.13;;;1.23;;
46290;SDS011;32023;44.444;26.006;2022-09-11T16:14:39;3.00;;;1.42;;
46290;SDS011;32023;44.444;26.006;2022-09-11T16:17:16;3.70;;;1.75;;
46290;SDS011;32023;44.444;26.006;2022-09-11T16:20:15;9.63;;;2.55;;
46290;SDS011;32023;44.444;26.006;2022-09-11T16:22:52;3.10;;;1.90;;
46290;SDS011;32023;44.444;26.006;2022-09-11T16:25:41;3.88;;;1.75;;
46290;SDS011;32023;44.444;26.006;2022-09-11T16:28:08;4.35;;;1.90;;
46290;SDS011;32023;44.444;26.006;2022-09-11T16:30:51;3.63;;;1.70;;
46290;SDS011;32023;44.444;26.006;2022-09-11T16:33:20;2.30;;;1.42;;
46290;SDS011;32023;44.444;26.006;2022-09-11T16:36:02;3.58;;;1.80;;
46290;SDS011;32023;44.444;26.006;2022-09-11T16:38:36;5.70;;;2.25;;
46290;SDS011;32023;44.444;26.006;2022-09-11T16:41:36;2.85;;;1.73;;
46290;SDS011;32023;44.444;26.006;2022-09-11T16:44:10;10.27;;;2.15;;
46290;SDS011;32023;44.444;26.006;2022-09-11T16:46:46;9.52;;;2.45;;
46290;SDS011;32023;44.444;26.006;2022-09-11T16:49:14;6.05;;;2.20;;
46290;SDS011;32023;44.444;26.006;2022-09-11T16:51:42;9.20;;;2.15;;
46290;SDS011;32023;44.444;26.006;2022-09-11T16:54:17;3.78;;;2.17;;
46290;SDS011;32023;44.444;26.006;2022-09-11T16:56:46;6.50;;;1.92;;
46290;SDS011;32023;44.444;26.006;2022-09-11T16:59:30;9.77;;;3.55;;
46290;SDS011;32023;44.444;26.006;2022-09-11T17:02:09;6.65;;;2.70;;
46290;SDS011;32023;44.444;26.006;2022-09-11T17:04:36;8.85;;;4.80;;
46290;SDS011;32023;44.444;26.006;2022-09-11T17:07:02;11.98;;;4.60;;
46290;SDS011;32023;44.444;26.006;2022-09-11T17:09:36;11.13;;;4.78;;
46290;SDS011;32023;44.444;26.006;2022-09-11T17:12:02;8.20;;;4.63;;
46290;SDS011;32023;44.444;26.006;2022-09-11T17:14:29;17.13;;;10.18;;
46290;SDS011;32023;44.444;26.006;2022-09-11T17:19:53;10.60;;;6.18;;
46290;SDS011;32023;44.444;26.006;2022-09-11T17:22:22;11.82;;;7.57;;
46290;SDS011;32023;44.444;26.006;2022-09-11T17:28:14;8.68;;;5.80;;
46290;SDS011;32023;44.444;26.006;2022-09-11T17:31:01;8.38;;;5.03;;
46290;SDS011;32023;44.444;26.006;2022-09-11T17:36:16;8.13;;;3.90;;
46290;SDS011;32023;44.444;26.006;2022-09-11T17:38:59;7.97;;;4.00;;
46290;SDS011;32023;44.444;26.006;2022-09-11T17:41:29;8.15;;;3.88;;
46290;SDS011;32023;44.444;26.006;2022-09-11T17:46:50;8.55;;;3.25;;
46290;SDS011;32023;44.444;26.006;2022-09-11T17:49:40;9.57;;;3.00;;
46290;SDS011;32023;44.444;26.006;2022-09-11T17:52:23;12.48;;;3.20;;
46290;SDS011;32023;44.444;26.006;2022-09-11T17:54:55;6.38;;;2.53;;
46290;SDS011;32023;44.444;26.006;2022-09-11T17:57:39;7.07;;;2.80;;
46290;SDS011;32023;44.444;26.006;2022-09-11T18:00:11;5.47;;;2.50;;
46290;SDS011;32023;44.444;26.006;2022-09-11T18:02:57;5.00;;;2.10;;
46290;SDS011;32023;44.444;26.006;2022-09-11T18:05:24;3.13;;;2.10;;
46290;SDS011;32023;44.444;26.006;2022-09-11T18:07:53;8.05;;;2.15;;
46290;SDS011;32023;44.444;26.006;2022-09-11T18:10:24;7.65;;;2.10;;
46290;SDS011;32023;44.444;26.006;2022-09-11T18:12:54;4.47;;;2.10;;
46290;SDS011;32023;44.444;26.006;2022-09-11T18:15:22;9.13;;;3.35;;
46290;SDS011;32023;44.444;26.006;2022-09-11T18:20:33;4.28;;;2.42;;
46290;SDS011;32023;44.444;26.006;2022-09-11T18:23:04;9.05;;;2.47;;
46290;SDS011;32023;44.444;26.006;2022-09-11T18:25:51;3.65;;;2.35;;
46290;SDS011;32023;44.444;26.006;2022-09-11T18:28:17;5.93;;;2.22;;
46290;SDS011;32023;44.444;26.006;2022-09-11T18:30:47;3.30;;;2.15;;
46290;SDS011;32023;44.444;26.006;2022-09-11T18:33:15;3.97;;;2.35;;
46290;SDS011;32023;44.444;26.006;2022-09-11T18:35:44;7.53;;;2.60;;
46290;SDS011;32023;44.444;26.006;2022-09-11T18:38:14;4.60;;;2.15;;
46290;SDS011;32023;44.444;26.006;2022-09-11T18:40:40;6.63;;;2.60;;
46290;SDS011;32023;44.444;26.006;2022-09-11T18:43:09;6.03;;;2.35;;
46290;SDS011;32023;44.444;26.006;2022-09-11T18:45:36;5.15;;;2.35;;